createdAt,value
2018-09-01T00:00:10.146Z,19.81
2018-09-01T00:01:42.416Z,19.76
2018-09-01T00:03:13.046Z,19.73
2018-09-01T00:04:44.616Z,19.50
2018-09-01T00:06:16.298Z,19.50
2018-09-01T00:07:47.764Z,19.48
2018-09-01T00:09:19.340Z,19.40
2018-09-01T00:10:50.913Z,19.40
2018-09-01T00:12:22.585Z,19.40
2018-09-01T00:13:54.059Z,19.43
2018-09-01T00:15:25.634Z,19.40
2018-09-01T00:16:57.207Z,19.36
2018-09-01T00:18:29.181Z,19.31
2018-09-01T00:20:00.354Z,19.23
2018-09-01T00:21:31.927Z,19.25
2018-09-01T00:23:03.503Z,19.28
2018-09-01T00:24:35.174Z,19.33
2018-09-01T00:26:06.649Z,19.32
2018-09-01T00:27:38.221Z,19.36
2018-09-01T00:29:09.795Z,19.31
2018-09-01T00:30:41.485Z,19.40
2018-09-01T00:32:12.941Z,19.46
2018-09-01T00:33:44.515Z,19.55
2018-09-01T00:35:16.089Z,19.58
2018-09-01T00:36:47.813Z,19.59
2018-09-01T00:38:19.237Z,19.44
2018-09-01T00:39:50.809Z,19.40
2018-09-01T00:41:22.382Z,19.31
2018-09-01T00:42:54.057Z,19.31
2018-09-01T00:44:25.528Z,19.31
2018-09-01T00:45:57.102Z,19.44
2018-09-01T00:47:28.675Z,19.43
2018-09-01T00:49:00.549Z,19.43
2018-09-01T00:50:31.821Z,19.47
2018-09-01T00:52:03.398Z,19.50
2018-09-01T00:53:34.968Z,19.55
2018-09-01T00:55:06.742Z,19.40
2018-09-01T00:56:38.116Z,19.47
2018-09-01T00:58:09.689Z,19.55
2018-09-01T00:59:41.263Z,19.47
2018-09-01T01:01:12.986Z,19.40
2018-09-01T01:02:44.410Z,19.40
2018-09-01T01:04:15.981Z,19.23
2018-09-01T01:05:47.555Z,19.10
2018-09-01T01:07:19.129Z,19.00
2018-09-01T01:08:50.702Z,18.99
2018-09-01T01:10:22.279Z,19.29
2018-09-01T01:11:53.850Z,19.47
2018-09-01T01:13:25.672Z,19.56
2018-09-01T01:14:56.995Z,19.48
2018-09-01T01:16:28.568Z,19.56
2018-09-01T01:18:00.145Z,19.39
2018-09-01T01:19:32.060Z,19.33
2018-09-01T01:21:03.288Z,19.19
2018-09-01T01:22:34.860Z,19.11
2018-09-01T01:24:06.434Z,19.08
2018-09-01T01:25:38.359Z,19.14
2018-09-01T01:27:09.633Z,19.00
2018-09-01T01:28:41.155Z,19.02
2018-09-01T01:30:12.727Z,19.02
2018-09-01T01:31:44.549Z,18.95
2018-09-01T01:33:15.872Z,18.90
2018-09-01T01:34:47.444Z,18.87
2018-09-01T01:36:19.017Z,18.98
2018-09-01T01:37:50.592Z,18.87
2018-09-01T01:39:22.165Z,18.87
2018-09-01T01:40:53.736Z,18.81
2018-09-01T01:42:25.311Z,18.75
2018-09-01T01:43:56.983Z,18.73
2018-09-01T01:45:28.456Z,18.52
2018-09-01T01:47:00.028Z,18.52
2018-09-01T01:48:31.602Z,18.39
2018-09-01T01:50:03.576Z,18.35
2018-09-01T01:51:34.797Z,18.32
2018-09-01T01:53:06.320Z,18.39
2018-09-01T01:54:37.893Z,18.36
2018-09-01T01:56:09.772Z,18.39
2018-09-01T01:57:41.039Z,18.27
2018-09-01T01:59:12.612Z,18.33
2018-09-01T02:00:44.184Z,18.57
2018-09-01T02:02:15.760Z,19.21
2018-09-01T02:03:47.334Z,19.50
2018-09-01T02:05:18.902Z,19.95
2018-09-01T02:06:50.475Z,20.10
2018-09-01T02:08:22.299Z,19.99
2018-09-01T02:09:53.649Z,19.80
2018-09-01T02:11:25.196Z,19.55
2018-09-01T02:12:56.765Z,19.46
2018-09-01T02:14:28.640Z,19.63
2018-09-01T02:15:59.912Z,20.10
2018-09-01T02:17:31.486Z,20.08
2018-09-01T02:19:03.062Z,20.13
2018-09-01T02:20:34.931Z,20.17
2018-09-01T02:22:06.205Z,20.26
2018-09-01T02:23:37.815Z,20.33
2018-09-01T02:25:09.349Z,20.41
2018-09-01T02:26:41.372Z,20.47
2018-09-01T02:28:13.049Z,20.38
2018-09-01T02:29:44.072Z,20.39
2018-09-01T02:31:15.663Z,20.38
2018-09-01T02:32:47.216Z,20.21
2018-09-01T02:34:18.792Z,20.20
2018-09-01T02:35:50.361Z,20.13
2018-09-01T02:37:21.934Z,20.06
2018-09-01T02:38:53.608Z,20.18
2018-09-01T02:40:25.081Z,20.55
2018-09-01T02:41:56.653Z,20.92
2018-09-01T02:43:28.228Z,21.01
2018-09-01T02:45:00.003Z,20.92
2018-09-01T02:46:31.374Z,20.92
2018-09-01T02:48:02.948Z,20.92
2018-09-01T02:49:34.522Z,20.79
2018-09-01T02:51:06.395Z,20.74
2018-09-01T02:52:37.667Z,20.72
2018-09-01T02:54:09.243Z,20.72
2018-09-01T02:55:40.815Z,20.74
2018-09-01T02:57:12.388Z,20.85
2018-09-01T02:58:43.961Z,20.70
2018-09-01T03:00:15.535Z,20.61
2018-09-01T03:01:47.109Z,20.66
2018-09-01T03:03:19.082Z,20.82
2018-09-01T03:04:50.458Z,20.87
2018-09-01T03:06:21.829Z,20.92
2018-09-01T03:07:53.402Z,20.97
2018-09-01T03:09:25.129Z,21.03
2018-09-01T03:10:56.559Z,21.04
2018-09-01T03:12:28.122Z,20.91
2018-09-01T03:13:59.697Z,20.84
2018-09-01T03:15:31.423Z,21.14
2018-09-01T03:17:02.843Z,21.42
2018-09-01T03:18:34.422Z,21.49
2018-09-01T03:20:05.990Z,21.43
2018-09-01T03:21:38.008Z,21.21
2018-09-01T03:23:09.137Z,20.92
2018-09-01T03:24:40.711Z,20.88
2018-09-01T03:26:12.288Z,20.85
2018-09-01T03:27:43.958Z,20.73
2018-09-01T03:29:15.434Z,20.89
2018-09-01T03:30:47.005Z,20.99
2018-09-01T03:32:18.578Z,21.09
2018-09-01T03:33:50.153Z,21.10
2018-09-01T03:35:21.726Z,21.01
2018-09-01T03:36:53.299Z,21.06
2018-09-01T03:38:24.873Z,20.99
2018-09-01T03:39:56.597Z,20.80
2018-09-01T03:41:28.020Z,20.66
2018-09-01T03:42:59.596Z,20.64
2018-09-01T03:44:31.167Z,20.55
2018-09-01T03:46:02.844Z,20.70
2018-09-01T03:47:34.314Z,20.64
2018-09-01T03:49:05.888Z,20.80
2018-09-01T03:50:37.463Z,20.91
2018-09-01T03:52:09.335Z,20.87
2018-09-01T03:53:40.616Z,20.67
2018-09-01T03:55:12.182Z,20.80
2018-09-01T03:56:43.755Z,21.22
2018-09-01T03:58:15.480Z,21.10
2018-09-01T03:59:46.902Z,20.76
2018-09-01T04:01:18.476Z,20.43
2018-09-01T04:02:50.052Z,20.18
2018-09-01T04:04:21.627Z,20.01
2018-09-01T04:05:53.198Z,19.95
2018-09-01T04:07:24.769Z,20.03
2018-09-01T04:08:56.346Z,20.06
2018-09-01T04:10:27.916Z,20.29
2018-09-01T04:11:59.489Z,20.41
2018-09-01T04:13:31.062Z,20.39
2018-09-01T04:15:02.635Z,20.33
2018-09-01T04:16:34.761Z,20.06
2018-09-01T04:18:05.791Z,19.88
2018-09-01T04:19:37.355Z,19.81
2018-09-01T04:21:08.928Z,19.63
2018-09-01T04:22:40.801Z,19.51
2018-09-01T04:24:12.075Z,19.47
2018-09-01T04:25:43.651Z,19.40
2018-09-01T04:27:15.220Z,19.13
2018-09-01T04:28:46.892Z,18.63
2018-09-01T04:30:18.365Z,18.47
2018-09-01T04:31:49.957Z,18.41
2018-09-01T04:33:21.511Z,18.37
2018-09-01T04:34:53.269Z,18.41
2018-09-01T04:36:24.656Z,18.07
2018-09-01T04:37:56.230Z,17.64
2018-09-01T04:39:27.801Z,17.66
2018-09-01T04:40:59.372Z,17.56
2018-09-01T04:42:30.953Z,17.58
2018-09-01T04:44:02.517Z,17.52
2018-09-01T04:45:34.089Z,17.58
2018-09-01T04:47:05.949Z,17.56
2018-09-01T04:48:37.233Z,17.52
2018-09-01T04:50:08.807Z,17.36
2018-09-01T04:51:40.379Z,17.34
2018-09-01T04:53:12.351Z,17.58
2018-09-01T04:54:43.522Z,17.66
2018-09-01T04:56:15.126Z,17.68
2018-09-01T04:57:46.666Z,17.58
2018-09-01T04:59:18.236Z,17.62
2018-09-01T05:00:49.900Z,17.68
2018-09-01T05:02:21.383Z,17.62
2018-09-01T05:03:53.460Z,17.46
2018-09-01T05:05:24.527Z,17.34
2018-09-01T05:06:56.096Z,17.33
2018-09-01T05:08:27.681Z,17.40
2018-09-01T05:09:59.239Z,17.38
2018-09-01T05:11:30.933Z,17.33
2018-09-01T05:13:02.383Z,17.31
2018-09-01T05:14:33.954Z,17.51
2018-09-01T05:16:05.539Z,17.54
2018-09-01T05:17:37.097Z,17.66
2018-09-01T05:19:08.669Z,17.58
2018-09-01T05:20:40.242Z,17.55
2018-09-01T05:22:11.812Z,17.49
2018-09-01T05:23:43.685Z,17.36
2018-09-01T05:25:14.956Z,17.36
2018-09-01T05:26:46.528Z,17.46
2018-09-01T05:28:18.100Z,17.46
2018-09-01T05:29:49.770Z,17.52
2018-09-01T05:31:21.245Z,17.22
2018-09-01T05:32:52.813Z,17.00
2018-09-01T05:34:24.384Z,16.76
2018-09-01T05:35:55.958Z,16.68
2018-09-01T05:37:27.527Z,16.60
2018-09-01T05:38:59.098Z,16.50
2018-09-01T05:40:30.669Z,16.57
2018-09-01T05:42:02.259Z,16.61
2018-09-01T05:43:33.869Z,16.61
2018-09-01T05:45:05.387Z,16.57
2018-09-01T05:46:36.954Z,16.58
2018-09-01T05:48:08.625Z,16.64
2018-09-01T05:49:40.100Z,16.71
2018-09-01T05:51:11.668Z,16.64
2018-09-01T05:52:43.238Z,16.58
2018-09-01T05:54:15.110Z,16.61
2018-09-01T05:55:46.381Z,16.48
2018-09-01T05:57:17.952Z,16.39
2018-09-01T05:58:49.525Z,16.35
2018-09-01T06:00:21.096Z,16.41
2018-09-01T06:01:52.666Z,16.41
2018-09-01T06:03:24.238Z,16.41
2018-09-01T06:04:55.807Z,16.34
2018-09-01T06:06:27.577Z,16.30
2018-09-01T06:07:58.953Z,16.38
2018-09-01T06:09:30.520Z,16.38
2018-09-01T06:11:02.092Z,16.38
2018-09-01T06:12:33.663Z,16.42
2018-09-01T06:14:05.233Z,16.41
2018-09-01T06:15:36.805Z,16.57
2018-09-01T06:17:08.376Z,16.42
2018-09-01T06:18:40.050Z,16.48
2018-09-01T06:20:11.518Z,16.42
2018-09-01T06:21:43.088Z,16.39
2018-09-01T06:23:14.660Z,16.39
2018-09-01T06:24:46.672Z,16.39
2018-09-01T06:26:17.801Z,16.25
2018-09-01T06:27:49.373Z,16.17
2018-09-01T06:29:20.943Z,16.11
2018-09-01T06:30:52.717Z,16.02
2018-09-01T06:32:24.085Z,15.94
2018-09-01T06:33:55.655Z,15.92
2018-09-01T06:35:27.229Z,15.84
2018-09-01T06:36:58.802Z,15.92
2018-09-01T06:38:30.368Z,15.84
2018-09-01T06:40:01.939Z,15.80
2018-09-01T06:41:33.509Z,15.87
2018-09-01T06:43:05.244Z,15.86
2018-09-01T06:44:36.651Z,15.80
2018-09-01T06:46:08.222Z,15.83
2018-09-01T06:47:39.792Z,15.75
2018-09-01T06:49:11.363Z,15.82
2018-09-01T06:50:42.933Z,15.86
2018-09-01T06:52:14.504Z,15.87
2018-09-01T06:53:46.075Z,15.87
2018-09-01T06:55:17.946Z,15.76
2018-09-01T06:56:49.220Z,15.76
2018-09-01T06:58:20.787Z,15.64
2018-09-01T06:59:52.359Z,15.74
2018-09-01T07:01:24.028Z,15.68
2018-09-01T07:02:55.498Z,15.71
2018-09-01T07:04:27.070Z,15.82
2018-09-01T07:05:58.662Z,15.90
2018-09-01T07:07:30.212Z,15.93
2018-09-01T07:09:01.782Z,15.89
2018-09-01T07:10:33.352Z,15.96
2018-09-01T07:12:04.923Z,16.07
2018-09-01T07:13:36.495Z,16.12
2018-09-01T07:15:08.063Z,16.08
2018-09-01T07:16:39.634Z,16.08
2018-09-01T07:18:11.204Z,15.97
2018-09-01T07:19:42.975Z,15.75
2018-09-01T07:21:14.346Z,15.57
2018-09-01T07:22:45.916Z,15.62
2018-09-01T07:24:17.487Z,15.49
2018-09-01T07:25:49.360Z,15.49
2018-09-01T07:27:20.631Z,15.53
2018-09-01T07:28:52.200Z,15.51
2018-09-01T07:30:23.796Z,15.46
2018-09-01T07:31:55.345Z,15.51
2018-09-01T07:33:26.909Z,15.47
2018-09-01T07:34:58.480Z,15.50
2018-09-01T07:36:30.050Z,15.39
2018-09-01T07:38:01.775Z,15.43
2018-09-01T07:39:33.196Z,15.41
2018-09-01T07:41:04.761Z,15.36
2018-09-01T07:42:36.332Z,15.32
2018-09-01T07:44:07.903Z,15.50
2018-09-01T07:45:39.475Z,16.20
2018-09-01T07:47:11.043Z,17.18
2018-09-01T07:48:42.615Z,17.74
2018-09-01T07:50:14.185Z,17.97
2018-09-01T07:51:45.755Z,18.44
2018-09-01T07:53:17.326Z,18.81
2018-09-01T07:54:48.896Z,18.80
2018-09-01T07:56:21.011Z,18.60
2018-09-01T07:57:52.036Z,18.72
2018-09-01T07:59:23.607Z,18.70
2018-09-01T08:00:55.381Z,18.84
2018-09-01T08:02:26.749Z,19.02
2018-09-01T08:03:58.319Z,18.95
2018-09-01T08:05:29.890Z,19.11
2018-09-01T08:07:01.461Z,19.04
2018-09-01T08:08:33.033Z,19.07
2018-09-01T08:10:04.604Z,19.04
2018-09-01T08:11:36.175Z,18.92
2018-09-01T08:13:07.746Z,18.81
2018-09-01T08:14:39.593Z,18.85
2018-09-01T08:16:10.891Z,18.87
2018-09-01T08:17:42.464Z,18.95
2018-09-01T08:19:14.031Z,19.02
2018-09-01T08:20:45.603Z,18.98
2018-09-01T08:22:17.173Z,19.00
2018-09-01T08:23:48.744Z,18.95
2018-09-01T08:25:20.351Z,18.92
2018-09-01T08:26:52.189Z,18.78
2018-09-01T08:28:23.458Z,18.66
2018-09-01T08:29:55.031Z,18.54
2018-09-01T08:31:26.602Z,18.48
2018-09-01T08:32:58.324Z,18.50
2018-09-01T08:34:29.745Z,18.39
2018-09-01T08:36:01.317Z,18.32
2018-09-01T08:37:32.890Z,18.36
2018-09-01T08:39:04.460Z,18.45
2018-09-01T08:40:36.037Z,18.72
2018-09-01T08:42:07.603Z,18.84
2018-09-01T08:43:39.175Z,18.73
2018-09-01T08:45:10.749Z,18.80
2018-09-01T08:46:42.317Z,18.91
2018-09-01T08:48:13.889Z,18.99
2018-09-01T08:49:45.462Z,18.91
2018-09-01T08:51:17.184Z,18.88
2018-09-01T08:52:48.604Z,18.94
2018-09-01T08:54:20.175Z,18.80
2018-09-01T08:55:51.747Z,18.80
2018-09-01T08:57:23.619Z,18.81
2018-09-01T08:58:54.892Z,18.67
2018-09-01T09:00:26.463Z,18.72
2018-09-01T09:01:58.037Z,18.88
2018-09-01T09:03:29.607Z,18.82
2018-09-01T09:05:01.176Z,18.76
2018-09-01T09:06:32.747Z,18.72
2018-09-01T09:08:04.318Z,18.67
2018-09-01T09:09:36.045Z,18.63
2018-09-01T09:11:07.466Z,18.60
2018-09-01T09:12:39.033Z,18.62
2018-09-01T09:14:10.604Z,18.63
2018-09-01T09:17:13.748Z,18.69
2018-09-01T09:18:45.324Z,18.60
2018-09-01T09:20:16.891Z,18.57
2018-09-01T09:21:48.462Z,18.60
2018-09-01T09:23:20.034Z,18.65
2018-09-01T09:24:51.808Z,18.69
2018-09-01T09:26:23.180Z,18.85
2018-09-01T09:27:54.747Z,18.87
2018-09-01T09:29:26.870Z,19.02
2018-09-01T09:32:29.462Z,19.33
2018-09-01T09:34:01.034Z,19.43
2018-09-01T09:35:32.609Z,19.54
2018-09-01T09:38:35.750Z,19.63
2018-09-01T09:40:07.322Z,19.78
2018-09-01T09:41:38.893Z,19.50
2018-09-01T09:43:10.473Z,19.83
2018-09-01T09:44:42.342Z,19.98
2018-09-01T09:46:13.613Z,20.02
2018-09-01T09:47:45.288Z,20.13
2018-09-01T09:49:16.757Z,20.42
2018-09-01T09:50:49.423Z,20.69
2018-09-01T09:52:19.903Z,20.97
2018-09-01T09:53:53.197Z,21.09
2018-09-01T09:55:23.051Z,21.21
2018-09-01T09:58:26.271Z,21.50
2018-09-01T09:59:58.275Z,21.58
2018-09-01T10:01:29.349Z,21.61
2018-09-01T10:03:01.486Z,21.28
2018-09-01T10:04:32.496Z,21.22
2018-09-01T10:06:04.174Z,21.52
2018-09-01T10:07:41.915Z,21.44
2018-09-01T10:09:07.423Z,21.46
2018-09-01T10:13:42.149Z,21.50
2018-09-01T10:15:13.522Z,21.61
2018-09-01T10:16:45.098Z,21.29
2018-09-01T10:18:16.674Z,21.59
2018-09-01T10:21:20.077Z,21.75
2018-09-01T10:22:51.946Z,21.47
2018-09-01T10:24:22.979Z,21.50
2018-09-01T10:25:54.556Z,21.74
2018-09-01T10:27:26.131Z,21.86
2018-09-01T10:30:29.290Z,22.21
2018-09-01T10:32:00.862Z,22.51
2018-09-01T10:33:32.739Z,22.37
2018-09-01T10:35:04.015Z,22.28
2018-09-01T10:36:35.795Z,22.64
2018-09-01T10:38:07.170Z,23.02
2018-09-01T10:41:10.678Z,23.23
2018-09-01T10:42:42.104Z,23.22
2018-09-01T10:44:13.479Z,22.49
2018-09-01T10:45:45.059Z,22.37
2018-09-01T10:47:16.838Z,22.37
2018-09-01T10:48:48.214Z,22.60
2018-09-01T10:50:19.792Z,22.58
2018-09-01T10:51:51.674Z,22.75
2018-09-01T10:53:22.947Z,22.72
2018-09-01T10:54:55.073Z,22.61
2018-09-01T10:56:26.108Z,23.02
2018-09-01T10:57:57.885Z,23.57
2018-09-01T10:59:30.043Z,23.66
2018-09-01T11:01:00.845Z,23.60
2018-09-01T11:04:04.202Z,23.43
2018-09-01T11:05:35.952Z,23.27
2018-09-01T11:07:07.158Z,23.31
2018-09-01T11:08:38.738Z,23.98
2018-09-01T11:10:10.313Z,24.30
2018-09-01T11:11:41.900Z,24.02
2018-09-01T11:13:13.474Z,23.78
2018-09-01T11:14:45.051Z,24.12
2018-09-01T11:16:16.834Z,23.85
2018-09-01T11:17:48.360Z,23.76
2018-09-01T11:19:20.331Z,23.66
2018-09-01T11:20:51.732Z,23.91
2018-09-01T11:22:22.950Z,23.65
2018-09-01T11:23:54.529Z,23.80
2018-09-01T11:25:26.110Z,24.24
2018-09-01T11:26:57.689Z,24.83
2018-09-01T11:28:29.270Z,25.00
2018-09-01T11:30:00.851Z,24.80
2018-09-01T11:33:04.235Z,24.40
2018-09-01T11:34:35.820Z,24.91
2018-09-01T11:36:07.620Z,25.21
2018-09-01T11:37:38.753Z,25.64
2018-09-01T11:39:10.335Z,26.07
2018-09-01T11:40:41.917Z,25.64
2018-09-01T11:42:13.497Z,25.62
2018-09-01T11:43:45.282Z,25.90
2018-09-01T11:45:16.660Z,25.57
2018-09-01T11:46:48.850Z,25.23
2018-09-01T11:48:19.939Z,25.61
2018-09-01T11:49:51.450Z,25.23
2018-09-01T11:51:22.988Z,25.13
2018-09-01T11:52:55.088Z,25.65
2018-09-01T11:54:26.356Z,25.98
2018-09-01T11:55:57.736Z,26.13
2018-09-01T11:57:29.327Z,25.61
2018-09-01T11:59:00.912Z,25.76
2018-09-01T12:02:04.167Z,25.62
2018-09-01T12:03:35.647Z,26.23
2018-09-01T12:05:07.228Z,26.40
2018-09-01T12:08:10.393Z,26.43
2018-09-01T12:11:13.562Z,27.59
2018-09-01T12:14:17.770Z,27.25
2018-09-01T12:15:48.367Z,27.03
2018-09-01T12:17:20.197Z,26.80
2018-09-01T12:18:51.475Z,26.62
2018-09-01T12:20:23.260Z,26.91
2018-09-01T12:23:26.225Z,26.88
2018-09-01T12:24:57.808Z,26.28
2018-09-01T12:26:29.491Z,26.87
2018-09-01T12:28:01.024Z,26.80
2018-09-01T12:29:32.558Z,26.99
2018-09-01T12:31:04.444Z,27.44
2018-09-01T12:32:35.974Z,27.74
2018-09-01T12:34:07.308Z,27.97
2018-09-01T12:35:39.195Z,28.00
2018-09-01T12:37:10.677Z,27.63
2018-09-01T12:38:42.462Z,27.37
2018-09-01T12:41:45.226Z,27.70
2018-09-01T12:44:48.695Z,28.29
2018-09-01T12:47:51.777Z,28.04
2018-09-01T12:49:23.449Z,28.58
2018-09-01T12:50:55.782Z,28.33
2018-09-01T12:53:58.099Z,28.51
2018-09-01T12:55:29.481Z,28.34
2018-09-01T12:57:01.165Z,28.49
2018-09-01T12:58:33.193Z,28.52
2018-09-01T13:00:04.436Z,28.56
2018-09-01T13:01:36.121Z,28.86
2018-09-01T13:06:11.174Z,28.70
2018-09-01T13:07:42.362Z,28.80
2018-09-01T13:09:13.744Z,28.39
2018-09-01T13:12:17.009Z,28.37
2018-09-01T13:13:48.493Z,28.78
2018-09-01T13:15:20.281Z,28.77
2018-09-01T13:18:23.347Z,27.57
2018-09-01T13:19:54.831Z,28.36
2018-09-01T13:21:26.427Z,29.08
2018-09-01T13:22:58.004Z,29.00
2018-09-01T13:26:01.725Z,29.67
2018-09-01T13:27:33.301Z,29.48
2018-09-01T13:32:07.509Z,30.10
2018-09-01T13:33:39.093Z,30.15
2018-09-01T13:35:10.678Z,29.76
2018-09-01T13:36:42.265Z,29.33
2018-09-01T13:38:14.149Z,29.34
2018-09-01T13:39:45.435Z,29.60
2018-09-01T13:42:48.602Z,30.34
2018-09-01T13:44:20.590Z,30.60
2018-09-01T13:45:51.773Z,30.27
2018-09-01T13:47:23.663Z,29.87
2018-09-01T13:48:54.943Z,29.71
2018-09-01T13:50:26.530Z,30.23
2018-09-01T13:51:58.114Z,29.86
2018-09-01T13:55:01.286Z,30.23
2018-09-01T13:56:32.871Z,30.67
2018-09-01T13:58:04.457Z,30.47
2018-09-01T13:59:36.044Z,30.43
2018-09-01T14:02:39.463Z,30.65
2018-09-01T14:04:11.105Z,29.92
2018-09-01T14:05:42.385Z,30.20
2018-09-01T14:08:46.199Z,29.82
2018-09-01T14:11:48.731Z,31.56
2018-09-01T14:13:20.316Z,32.01
2018-09-01T14:14:52.661Z,32.01
2018-09-01T14:16:23.487Z,31.39
2018-09-01T14:21:00.573Z,30.58
2018-09-01T14:22:29.833Z,30.64
2018-09-01T14:24:01.961Z,31.23
2018-09-01T14:27:05.096Z,32.29
2018-09-01T14:28:36.385Z,31.66
2018-09-01T14:31:39.354Z,31.54
2018-09-01T14:33:11.042Z,31.72
2018-09-01T14:34:42.565Z,31.36
2018-09-01T14:36:14.117Z,31.46
2018-09-01T14:37:45.703Z,31.61
2018-09-01T14:40:49.079Z,31.38
2018-09-01T14:42:20.464Z,31.39
2018-09-01T14:43:52.255Z,31.53
2018-09-01T14:45:23.639Z,31.58
2018-09-01T14:48:26.832Z,32.08
2018-09-01T14:49:58.401Z,32.19
2018-09-01T14:51:30.256Z,32.11
2018-09-01T14:53:01.614Z,32.15
2018-09-01T14:54:33.372Z,31.68
2018-09-01T14:57:36.547Z,31.89
2018-09-01T14:59:08.512Z,31.66
2018-09-01T15:00:39.717Z,31.92
2018-09-01T15:03:42.691Z,32.33
2018-09-01T15:05:15.026Z,31.86
2018-09-01T15:06:45.866Z,32.32
2018-09-01T15:08:17.454Z,32.75
2018-09-01T15:09:49.245Z,32.69
2018-09-01T15:11:20.631Z,33.32
2018-09-01T15:12:52.318Z,32.93
2018-09-01T15:14:24.352Z,33.39
2018-09-01T15:15:55.599Z,33.09
2018-09-01T15:17:26.983Z,32.79
2018-09-01T15:18:58.673Z,32.41
2018-09-01T15:20:30.165Z,32.30
2018-09-01T15:22:02.053Z,33.11
2018-09-01T15:23:34.491Z,33.41
2018-09-01T15:25:04.929Z,33.07
2018-09-01T15:26:36.517Z,32.77
2018-09-01T15:31:11.437Z,32.74
2018-09-01T15:32:42.971Z,32.32
2018-09-01T15:34:14.464Z,32.35
2018-09-01T15:35:46.256Z,32.07
2018-09-01T15:41:52.812Z,32.33
2018-09-01T15:44:55.895Z,32.48
2018-09-01T15:46:27.688Z,31.95
2018-09-01T15:49:30.857Z,33.09
2018-09-01T15:52:33.837Z,32.84
2018-09-01T15:54:05.323Z,32.74
2018-09-01T15:57:08.705Z,33.03
2018-09-01T16:01:43.067Z,33.42
2018-09-01T16:04:46.889Z,34.19
2018-09-01T16:06:17.835Z,34.78
2018-09-01T16:07:49.424Z,33.84
2018-09-01T16:09:21.015Z,33.97
2018-09-01T16:10:52.906Z,34.17
2018-09-01T16:12:24.196Z,34.31
2018-09-01T16:13:55.988Z,33.87
2018-09-01T16:15:27.377Z,34.03
2018-09-01T16:16:59.672Z,33.57
2018-09-01T16:18:30.557Z,33.53
2018-09-01T16:20:02.148Z,34.12
2018-09-01T16:21:33.738Z,34.78
2018-09-01T16:26:09.418Z,33.86
2018-09-01T16:27:40.644Z,33.63
2018-09-01T16:30:43.283Z,33.45
2018-09-01T16:33:47.714Z,32.81
2018-09-01T16:36:49.852Z,33.81
2018-09-01T16:38:21.234Z,33.82
2018-09-01T16:39:53.330Z,33.59
2018-09-01T16:41:24.414Z,33.39
2018-09-01T16:44:27.601Z,33.73
2018-09-01T16:45:59.486Z,33.97
2018-09-01T16:47:30.775Z,34.08
2018-09-01T16:49:02.910Z,34.22
2018-09-01T16:50:34.155Z,33.22
2018-09-01T16:52:06.211Z,33.72
2018-09-01T16:58:12.202Z,33.60
2018-09-01T16:59:43.491Z,33.39
2018-09-01T17:01:15.080Z,34.08
2018-09-01T17:02:46.669Z,34.09
2018-09-01T17:04:18.664Z,33.60
2018-09-01T17:05:49.847Z,33.56
2018-09-01T17:07:21.437Z,32.52
2018-09-01T17:08:53.026Z,31.66
2018-09-01T17:10:24.767Z,31.32
2018-09-01T17:11:56.203Z,31.25
2018-09-01T17:14:59.986Z,31.61
2018-09-01T17:18:02.546Z,31.69
2018-09-01T17:19:34.135Z,32.22
2018-09-01T17:21:05.717Z,33.44
2018-09-01T17:22:37.301Z,33.68
2018-09-01T17:24:08.986Z,32.92
2018-09-01T17:27:12.260Z,33.15
2018-09-01T17:28:43.868Z,34.09
2018-09-01T17:30:15.835Z,34.28
2018-09-01T17:31:46.816Z,33.84
2018-09-01T17:34:50.193Z,34.87
2018-09-01T17:36:21.678Z,34.31
2018-09-01T17:37:53.164Z,33.11
2018-09-01T17:42:28.231Z,34.10
2018-09-01T17:43:59.817Z,34.54
2018-09-01T17:45:31.645Z,34.85
2018-09-01T17:47:02.688Z,34.75
2018-09-01T17:48:34.975Z,34.49
2018-09-01T17:50:05.866Z,34.37
2018-09-01T17:51:38.298Z,34.94
2018-09-01T17:53:09.039Z,34.89
2018-09-01T17:54:40.729Z,35.52
2018-09-01T17:57:43.806Z,35.25
2018-09-01T17:59:15.933Z,35.77
2018-09-01T18:00:47.280Z,34.65
2018-09-01T18:08:26.468Z,34.81
2018-09-01T18:09:56.507Z,35.90
2018-09-01T18:11:28.400Z,36.98
2018-09-01T18:12:59.683Z,37.51
2018-09-01T18:14:32.331Z,37.17
2018-09-01T18:16:02.860Z,37.15
2018-09-01T18:19:06.037Z,35.37
2018-09-01T18:22:09.313Z,33.68
2018-09-01T18:23:40.858Z,34.30
2018-09-01T18:25:12.388Z,34.81
2018-09-01T18:28:16.119Z,34.32
2018-09-01T18:29:47.150Z,33.04
2018-09-01T18:32:50.325Z,30.51
2018-09-01T18:34:22.214Z,29.19
2018-09-01T18:35:53.562Z,28.90
2018-09-01T18:37:25.089Z,28.93
2018-09-01T18:42:00.193Z,27.39
2018-09-01T18:43:31.420Z,26.75
2018-09-01T18:45:03.207Z,27.03
2018-09-01T18:46:34.587Z,27.63
2018-09-01T18:48:06.569Z,27.04
2018-09-01T18:49:37.752Z,26.45
2018-09-01T18:52:40.920Z,27.93
2018-09-01T18:54:12.506Z,28.17
2018-09-01T18:55:44.084Z,28.39
2018-09-01T18:57:16.210Z,28.61
2018-09-01T18:58:47.251Z,27.79
2018-09-01T19:00:18.832Z,27.07
2018-09-01T19:01:50.414Z,25.99
2018-09-01T19:03:21.995Z,25.15
2018-09-01T19:04:53.669Z,25.09
2018-09-01T19:06:26.218Z,25.38
2018-09-01T19:07:56.742Z,25.52
2018-09-01T19:09:28.325Z,25.08
2018-09-01T19:12:31.791Z,24.58
2018-09-01T19:15:34.654Z,24.31
2018-09-01T19:17:06.231Z,23.72
2018-09-01T19:20:09.392Z,23.22
2018-09-01T19:21:41.580Z,23.27
2018-09-01T19:23:12.553Z,23.00
2018-09-01T19:24:44.438Z,22.79
2018-09-01T19:26:15.863Z,22.91
2018-09-01T19:27:47.497Z,22.94
2018-09-01T19:30:50.795Z,22.37
2018-09-01T19:32:22.840Z,22.10
2018-09-01T19:33:53.813Z,22.14
2018-09-01T19:35:25.187Z,21.82
2018-09-01T19:36:56.769Z,21.54
2018-09-01T19:38:28.451Z,21.22
2018-09-01T19:40:00.126Z,21.19
2018-09-01T19:41:31.808Z,21.24
2018-09-01T19:43:03.280Z,21.28
2018-09-01T19:44:35.633Z,21.27
2018-09-01T19:46:06.274Z,21.22
2018-09-01T19:49:09.385Z,20.98
2018-09-01T19:50:41.267Z,20.95
2018-09-01T19:52:12.538Z,20.94
2018-09-01T19:55:15.697Z,20.99
2018-09-01T19:56:47.368Z,20.82
2018-09-01T19:58:18.889Z,20.73
2018-09-01T19:59:50.622Z,20.52
2018-09-01T20:01:21.995Z,20.18
2018-09-01T20:02:54.075Z,20.16
2018-09-01T20:04:25.185Z,20.16
2018-09-01T20:05:56.746Z,20.43
2018-09-01T20:07:28.298Z,20.57
2018-09-01T20:09:00.174Z,20.35
2018-09-01T20:10:31.752Z,20.17
2018-09-01T20:12:03.770Z,20.02
2018-09-01T20:13:34.599Z,19.94
2018-09-01T20:15:06.175Z,19.96
2018-09-01T20:16:37.952Z,19.71
2018-09-01T20:18:09.324Z,19.69
2018-09-01T20:19:41.102Z,19.63
2018-09-01T20:21:12.923Z,19.39
2018-09-01T20:22:44.249Z,19.33
2018-09-01T20:24:15.621Z,19.43
2018-09-01T20:25:47.195Z,19.37
2018-09-01T20:27:18.869Z,19.29
2018-09-01T20:28:50.343Z,19.29
2018-09-01T20:30:21.918Z,19.32
2018-09-01T20:31:53.887Z,19.39
2018-09-01T20:33:25.165Z,19.40
2018-09-01T20:36:28.212Z,19.31
2018-09-01T20:37:59.830Z,19.31
2018-09-01T20:39:32.063Z,19.32
2018-09-01T20:41:03.236Z,19.29
2018-09-01T20:42:34.505Z,19.43
2018-09-01T20:44:06.078Z,19.48
2018-09-01T20:45:37.956Z,19.56
2018-09-01T20:47:09.225Z,19.28
2018-09-01T20:48:40.801Z,19.02
2018-09-01T20:50:12.372Z,18.88
2018-09-01T20:51:44.043Z,18.92
2018-09-01T20:53:15.521Z,18.87
2018-09-01T20:54:47.091Z,18.88
2018-09-01T20:56:18.664Z,18.84
2018-09-01T20:57:50.623Z,19.06
2018-09-01T20:59:21.810Z,19.10
2018-09-01T21:02:24.957Z,18.99
2018-09-01T21:03:56.629Z,19.02
2018-09-01T21:05:28.102Z,18.95
2018-09-01T21:06:59.675Z,19.13
2018-09-01T21:08:31.249Z,18.98
2018-09-01T21:11:34.695Z,18.90
2018-09-01T21:13:05.966Z,18.92
2018-09-01T21:14:37.539Z,18.82
2018-09-01T21:16:09.112Z,18.82
2018-09-01T21:17:41.089Z,18.90
2018-09-01T21:20:43.831Z,18.92
2018-09-01T21:22:15.450Z,19.00
2018-09-01T21:23:47.077Z,19.14
2018-09-01T21:25:18.549Z,19.14
2018-09-01T21:26:50.122Z,19.13
2018-09-01T21:28:21.695Z,19.18
2018-09-01T21:29:53.268Z,19.14
2018-09-01T21:31:24.841Z,19.14
2018-09-01T21:32:56.414Z,19.28
2018-09-01T21:34:27.991Z,19.18
2018-09-01T21:35:59.663Z,19.25
2018-09-01T21:37:31.135Z,19.33
2018-09-01T21:39:02.707Z,19.25
2018-09-01T21:40:34.281Z,19.22
2018-09-01T21:42:05.955Z,19.25
2018-09-01T21:43:37.426Z,19.13
2018-09-01T21:45:09.000Z,19.10
2018-09-01T21:46:40.574Z,19.23
2018-09-01T21:48:12.196Z,19.08
2018-09-01T21:49:43.748Z,19.13
2018-09-01T21:51:15.293Z,19.18
2018-09-01T21:52:46.866Z,19.14
2018-09-01T21:54:18.540Z,19.14